createdAt,value
2018-11-26T00:00:21.133Z,153.40
2018-11-26T00:02:51.680Z,140.00
2018-11-26T00:05:20.617Z,152.47
2018-11-26T00:08:07.985Z,143.23
2018-11-26T00:10:48.622Z,174.15
2018-11-26T00:13:17.291Z,158.50
2018-11-26T00:15:45.923Z,166.10
2018-11-26T00:18:14.556Z,163.50
2018-11-26T00:20:43.424Z,164.33
2018-11-26T00:23:12.064Z,164.77
2018-11-26T00:25:40.676Z,170.10
2018-11-26T00:28:09.511Z,172.00
2018-11-26T00:30:38.180Z,154.13
2018-11-26T00:33:07.735Z,172.85
2018-11-26T00:35:37.873Z,160.43
2018-11-26T00:38:06.503Z,180.23
2018-11-26T00:40:35.144Z,178.80
2018-11-26T00:43:04.086Z,168.83
2018-11-26T00:45:32.718Z,161.67
2018-11-26T00:48:01.332Z,179.20
2018-11-26T00:50:29.984Z,167.20
2018-11-26T00:52:58.616Z,189.50
2018-11-26T00:55:27.236Z,187.87
2018-11-26T00:57:55.860Z,208.83
2018-11-26T01:00:24.471Z,186.30
2018-11-26T01:02:53.246Z,207.90
2018-11-26T01:05:34.928Z,173.07
2018-11-26T01:08:03.587Z,199.80
2018-11-26T01:10:32.256Z,182.43
2018-11-26T01:13:00.892Z,179.47
2018-11-26T01:15:29.540Z,180.33
2018-11-26T01:17:58.188Z,150.73
2018-11-26T01:20:26.792Z,165.25
2018-11-26T01:22:55.444Z,171.07
2018-11-26T01:25:24.057Z,167.67
2018-11-26T01:27:52.680Z,153.43
2018-11-26T01:30:21.297Z,143.90
2018-11-26T01:32:49.949Z,148.27
2018-11-26T01:35:18.600Z,161.97
2018-11-26T01:37:47.222Z,161.15
2018-11-26T01:40:29.269Z,163.43
2018-11-26T01:42:57.917Z,184.78
2018-11-26T01:45:26.599Z,175.57
2018-11-26T01:47:55.176Z,157.37
2018-11-26T01:50:24.064Z,193.27
2018-11-26T01:52:52.725Z,173.30
2018-11-26T01:55:21.395Z,178.37
2018-11-26T01:57:50.367Z,169.67
2018-11-26T02:00:21.269Z,162.67
2018-11-26T02:02:49.954Z,175.13
2018-11-26T02:05:18.626Z,164.63
2018-11-26T02:07:47.198Z,181.33
2018-11-26T02:10:17.195Z,182.30
2018-11-26T02:12:45.800Z,186.03
2018-11-26T02:15:24.776Z,206.03
2018-11-26T02:17:53.417Z,190.90
2018-11-26T02:20:22.028Z,181.67
2018-11-26T02:22:50.664Z,187.83
2018-11-26T02:25:19.541Z,192.00
2018-11-26T02:27:48.149Z,170.13
2018-11-26T02:30:16.886Z,168.57
2018-11-26T02:32:45.569Z,168.73
2018-11-26T02:35:14.143Z,156.83
2018-11-26T02:37:43.419Z,161.23
2018-11-26T02:40:16.434Z,156.00
2018-11-26T02:42:45.064Z,155.33
2018-11-26T02:45:13.677Z,145.10
2018-11-26T02:47:42.297Z,136.80
2018-11-26T02:50:11.852Z,130.23
2018-11-26T02:52:41.917Z,123.93
2018-11-26T02:55:10.521Z,135.80
2018-11-26T02:57:39.262Z,124.77
2018-11-26T03:00:09.260Z,123.07
2018-11-26T03:02:37.877Z,119.83
2018-11-26T03:05:08.749Z,111.97
2018-11-26T03:07:37.340Z,118.40
2018-11-26T03:10:07.386Z,117.33
2018-11-26T03:12:36.194Z,110.53
2018-11-26T03:15:07.577Z,108.30
2018-11-26T03:17:36.197Z,97.70
2018-11-26T03:20:07.196Z,100.30
2018-11-26T03:22:36.995Z,91.13
2018-11-26T03:25:07.048Z,85.87
2018-11-26T03:27:35.663Z,86.83
2018-11-26T03:30:07.956Z,95.23
2018-11-26T03:32:36.756Z,88.30
2018-11-26T03:35:06.883Z,79.20
2018-11-26T03:37:35.512Z,88.17
2018-11-26T03:40:07.540Z,95.30
2018-11-26T03:42:36.153Z,93.50
2018-11-26T03:45:06.881Z,96.47
2018-11-26T03:47:35.477Z,90.67
2018-11-26T03:50:04.176Z,98.50
2018-11-26T03:52:32.793Z,95.50
2018-11-26T03:55:01.396Z,99.83
2018-11-26T03:57:30.044Z,95.93
2018-11-26T03:59:58.665Z,106.23
2018-11-26T04:02:27.408Z,94.90
2018-11-26T04:04:56.035Z,96.80
2018-11-26T04:07:24.651Z,91.83
2018-11-26T04:09:53.332Z,81.90
2018-11-26T04:12:21.885Z,82.13
2018-11-26T04:14:50.537Z,80.70
2018-11-26T04:17:19.138Z,88.70
2018-11-26T04:19:47.783Z,83.63
2018-11-26T04:22:16.636Z,87.80
2018-11-26T04:24:45.245Z,82.47
2018-11-26T04:27:14.939Z,91.47
2018-11-26T04:29:43.931Z,81.40
2018-11-26T04:32:13.452Z,94.05
2018-11-26T04:34:42.085Z,90.80
2018-11-26T04:37:10.840Z,90.03
2018-11-26T04:39:39.448Z,101.23
2018-11-26T04:42:08.204Z,103.53
2018-11-26T04:44:36.815Z,92.87
2018-11-26T04:47:05.417Z,95.53
2018-11-26T04:49:34.285Z,94.73
2018-11-26T04:52:02.900Z,90.83
2018-11-26T04:54:31.506Z,92.83
2018-11-26T04:57:00.145Z,86.80
2018-11-26T04:59:29.104Z,82.50
2018-11-26T05:01:57.692Z,88.97
2018-11-26T05:04:26.282Z,70.80
2018-11-26T05:06:54.896Z,73.33
2018-11-26T05:09:25.312Z,68.30
2018-11-26T05:11:53.933Z,72.47
2018-11-26T05:14:22.677Z,65.33
2018-11-26T05:16:51.293Z,71.23
2018-11-26T05:19:20.037Z,60.17
2018-11-26T05:21:48.721Z,64.10
2018-11-26T05:24:17.387Z,72.63
2018-11-26T05:26:46.084Z,69.77
2018-11-26T05:29:14.707Z,63.57
2018-11-26T05:31:43.393Z,70.83
2018-11-26T05:34:11.992Z,69.83
2018-11-26T05:36:40.624Z,77.13
2018-11-26T05:39:09.341Z,60.53
2018-11-26T05:41:37.948Z,70.37
2018-11-26T05:44:06.560Z,72.00
2018-11-26T05:46:35.192Z,73.60
2018-11-26T05:49:03.801Z,72.40
2018-11-26T05:51:32.442Z,71.40
2018-11-26T05:54:03.167Z,71.77
2018-11-26T05:56:31.870Z,68.60
2018-11-26T05:59:00.468Z,64.47
2018-11-26T06:01:29.078Z,65.03
2018-11-26T06:03:57.703Z,67.80
2018-11-26T06:06:26.302Z,58.37
2018-11-26T06:08:54.920Z,73.33
2018-11-26T06:11:23.520Z,67.37
2018-11-26T06:13:52.127Z,61.25
2018-11-26T06:16:20.751Z,60.03
2018-11-26T06:18:49.340Z,63.17
2018-11-26T06:21:17.943Z,64.23
2018-11-26T06:23:46.553Z,61.40
2018-11-26T06:26:15.536Z,58.03
2018-11-26T06:28:44.164Z,56.20
2018-11-26T06:31:12.769Z,61.23
2018-11-26T06:33:41.537Z,66.20
2018-11-26T06:36:10.172Z,71.67
2018-11-26T06:38:38.793Z,60.77
2018-11-26T06:41:07.420Z,56.37
2018-11-26T06:43:36.042Z,64.93
2018-11-26T06:46:04.868Z,63.70
2018-11-26T06:48:33.883Z,57.87
2018-11-26T06:51:02.693Z,68.90
2018-11-26T06:53:31.297Z,70.77
2018-11-26T06:55:59.922Z,68.23
2018-11-26T06:58:28.566Z,58.00
2018-11-26T07:00:57.233Z,53.70
2018-11-26T07:03:25.828Z,55.00
2018-11-26T07:05:54.457Z,55.47
2018-11-26T07:08:23.073Z,51.23
2018-11-26T07:10:51.656Z,52.43
2018-11-26T07:13:20.275Z,53.60
2018-11-26T07:15:48.904Z,59.23
2018-11-26T07:18:17.544Z,63.93
2018-11-26T07:20:46.221Z,65.50
2018-11-26T07:23:14.836Z,63.57
2018-11-26T07:25:43.487Z,59.10
2018-11-26T07:28:12.073Z,57.50
2018-11-26T07:30:40.684Z,64.27
2018-11-26T07:33:09.312Z,62.23
2018-11-26T07:35:37.920Z,62.23
2018-11-26T07:38:06.520Z,62.00
2018-11-26T07:40:35.312Z,61.23
2018-11-26T07:43:13.580Z,63.40
2018-11-26T07:45:42.214Z,63.00
2018-11-26T07:48:11.732Z,64.33
2018-11-26T07:50:40.349Z,66.97
2018-11-26T07:53:09.749Z,62.43
2018-11-26T07:55:40.995Z,59.10
2018-11-26T07:58:09.656Z,61.80
2018-11-26T08:00:38.594Z,61.07
2018-11-26T08:03:07.315Z,64.30
2018-11-26T08:05:37.799Z,59.77
2018-11-26T08:08:06.620Z,50.67
2018-11-26T08:10:35.234Z,59.43
2018-11-26T08:13:03.857Z,59.87
2018-11-26T08:15:32.480Z,56.47
2018-11-26T08:18:01.372Z,56.83
2018-11-26T08:20:30.003Z,65.63
2018-11-26T08:22:58.592Z,56.63
2018-11-26T08:25:27.601Z,56.77
2018-11-26T08:27:56.429Z,57.73
2018-11-26T08:30:26.137Z,55.57
2018-11-26T08:32:58.503Z,55.77
2018-11-26T08:35:27.780Z,50.40
2018-11-26T08:38:01.838Z,44.67
2018-11-26T08:40:35.637Z,56.23
2018-11-26T08:43:11.668Z,49.80
2018-11-26T08:45:46.981Z,52.30
2018-11-26T08:48:15.712Z,47.30
2018-11-26T08:50:44.540Z,53.07
2018-11-26T08:53:13.405Z,44.80
2018-11-26T08:55:42.017Z,42.13
2018-11-26T08:58:10.630Z,38.03
2018-11-26T09:00:39.253Z,32.20
2018-11-26T09:03:13.585Z,39.30
2018-11-26T09:05:46.488Z,36.23
2018-11-26T09:08:15.113Z,35.73
2018-11-26T09:10:43.757Z,33.63
2018-11-26T09:13:12.448Z,35.33
2018-11-26T09:15:41.176Z,36.70
2018-11-26T09:18:09.772Z,37.23
2018-11-26T09:20:38.496Z,37.93
2018-11-26T09:23:07.084Z,34.20
2018-11-26T09:25:35.698Z,35.67
2018-11-26T09:28:04.328Z,39.87
2018-11-26T09:30:32.970Z,36.50
2018-11-26T09:33:01.563Z,34.73
2018-11-26T09:35:30.212Z,34.27
2018-11-26T09:37:58.832Z,38.73
2018-11-26T09:40:27.472Z,31.37
2018-11-26T09:42:56.332Z,37.40
2018-11-26T09:45:24.937Z,33.83
2018-11-26T09:47:53.581Z,33.80
2018-11-26T09:50:22.904Z,40.43
2018-11-26T09:52:51.521Z,36.23
2018-11-26T09:55:20.140Z,38.63
2018-11-26T09:57:48.821Z,37.45
2018-11-26T10:00:18.824Z,38.03
2018-11-26T10:02:49.581Z,37.40
2018-11-26T10:05:21.152Z,37.33
2018-11-26T10:07:49.776Z,46.33
2018-11-26T10:10:19.219Z,39.33
2018-11-26T10:12:47.879Z,38.43
2018-11-26T10:15:22.495Z,42.27
2018-11-26T10:17:51.141Z,39.90
2018-11-26T10:20:19.820Z,44.10
2018-11-26T10:22:50.456Z,43.77
2018-11-26T10:25:19.974Z,41.93
2018-11-26T10:27:52.233Z,47.13
2018-11-26T10:30:23.354Z,44.87
2018-11-26T10:32:51.962Z,38.47
2018-11-26T10:35:20.932Z,40.70
2018-11-26T10:37:49.593Z,41.93
2018-11-26T10:40:22.088Z,44.43
2018-11-26T10:42:50.866Z,46.87
2018-11-26T10:45:20.480Z,43.33
2018-11-26T10:47:49.771Z,44.70
2018-11-26T10:50:20.713Z,42.40
2018-11-26T10:52:56.741Z,42.50
2018-11-26T10:55:27.090Z,43.60
2018-11-26T10:57:55.652Z,44.57
2018-11-26T11:00:30.706Z,47.23
2018-11-26T11:02:59.308Z,44.50
2018-11-26T11:05:28.099Z,51.67
2018-11-26T11:07:56.727Z,55.73
2018-11-26T11:10:28.548Z,48.78
2018-11-26T11:12:57.220Z,49.20
2018-11-26T11:15:25.842Z,52.20
2018-11-26T11:17:55.441Z,55.83
2018-11-26T11:20:25.951Z,54.80
2018-11-26T11:22:54.599Z,58.77
2018-11-26T11:25:23.409Z,54.30
2018-11-26T11:27:52.791Z,56.80
2018-11-26T11:30:24.782Z,55.73
2018-11-26T11:32:53.406Z,61.10
2018-11-26T11:35:22.161Z,52.60
2018-11-26T11:37:51.473Z,56.67
2018-11-26T11:40:28.590Z,58.87
2018-11-26T11:42:58.040Z,63.40
2018-11-26T11:45:27.357Z,60.20
2018-11-26T11:47:56.045Z,68.33
2018-11-26T11:50:24.717Z,67.33
2018-11-26T11:52:53.661Z,67.13
2018-11-26T11:55:24.437Z,66.03
2018-11-26T11:57:53.109Z,68.83
2018-11-26T12:00:29.149Z,72.40
2018-11-26T12:02:57.943Z,63.13
2018-11-26T12:05:26.642Z,63.80
2018-11-26T12:07:55.244Z,70.57
2018-11-26T12:10:23.853Z,69.30
2018-11-26T12:12:52.468Z,73.07
2018-11-26T12:15:21.228Z,66.75
2018-11-26T12:17:49.977Z,64.20
2018-11-26T12:20:18.605Z,65.67
2018-11-26T12:22:47.242Z,76.17
2018-11-26T12:25:16.934Z,66.50
2018-11-26T12:27:45.550Z,68.63
2018-11-26T12:30:21.986Z,73.73
2018-11-26T12:32:51.521Z,74.80
2018-11-26T12:35:20.138Z,69.83
2018-11-26T12:37:48.858Z,74.43
2018-11-26T12:40:21.390Z,66.27
2018-11-26T12:42:51.194Z,69.00
2018-11-26T12:45:21.889Z,75.37
2018-11-26T12:47:50.917Z,71.97
2018-11-26T12:50:19.587Z,67.70
2018-11-26T12:52:51.283Z,72.10
2018-11-26T12:55:20.914Z,74.60
2018-11-26T12:57:50.074Z,76.53
2018-11-26T13:00:20.704Z,66.03
2018-11-26T13:02:52.970Z,67.63
2018-11-26T13:05:22.013Z,65.20
2018-11-26T13:07:50.661Z,62.80
2018-11-26T13:10:20.389Z,78.23
2018-11-26T13:12:49.610Z,67.50
2018-11-26T13:15:19.350Z,66.27
2018-11-26T13:17:48.040Z,63.37
2018-11-26T13:20:17.814Z,66.10
2018-11-26T13:22:46.548Z,71.00
2018-11-26T13:25:17.479Z,62.97
2018-11-26T13:27:47.426Z,65.27
2018-11-26T13:30:19.963Z,71.87
2018-11-26T13:32:49.821Z,62.87
2018-11-26T13:35:18.884Z,67.30
2018-11-26T13:37:48.784Z,61.27
2018-11-26T13:40:18.142Z,62.17
2018-11-26T13:42:47.088Z,63.60
2018-11-26T13:45:19.003Z,59.17
2018-11-26T13:47:47.606Z,62.30
2018-11-26T13:50:23.062Z,60.90
2018-11-26T13:52:51.290Z,57.33
2018-11-26T13:55:19.897Z,58.27
2018-11-26T13:57:48.637Z,62.00
2018-11-26T14:00:17.657Z,61.83
2018-11-26T14:02:46.362Z,64.17
2018-11-26T14:05:16.169Z,59.67
2018-11-26T14:07:45.178Z,59.10
2018-11-26T14:10:19.693Z,56.73
2018-11-26T14:12:53.034Z,62.37
2018-11-26T14:15:21.655Z,63.83
2018-11-26T14:17:50.269Z,75.37
2018-11-26T14:20:18.882Z,68.17
2018-11-26T14:22:47.669Z,58.47
2018-11-26T14:25:17.373Z,60.73
2018-11-26T14:27:46.537Z,61.23
2018-11-26T14:30:19.456Z,63.87
2018-11-26T14:32:47.990Z,62.97
2018-11-26T14:35:17.267Z,58.53
2018-11-26T14:37:47.534Z,64.47
2018-11-26T14:40:20.715Z,67.60
2018-11-26T14:42:49.323Z,58.47
2018-11-26T14:45:17.915Z,59.73
2018-11-26T14:47:46.629Z,59.43
2018-11-26T14:50:16.110Z,57.37
2018-11-26T14:52:45.962Z,66.33
2018-11-26T14:55:17.837Z,65.67
2018-11-26T14:57:46.445Z,65.20
2018-11-26T15:00:16.749Z,69.30
2018-11-26T15:02:45.578Z,60.20
2018-11-26T15:05:14.402Z,63.17
2018-11-26T15:07:43.269Z,62.87
2018-11-26T15:10:13.293Z,60.60
2018-11-26T15:12:42.637Z,60.60
2018-11-26T15:15:13.454Z,70.03
2018-11-26T15:17:42.848Z,61.53
2018-11-26T15:20:12.861Z,60.90
2018-11-26T15:22:41.445Z,60.03
2018-11-26T15:25:11.435Z,62.77
2018-11-26T15:27:40.419Z,66.17
2018-11-26T15:30:10.638Z,59.87
2018-11-26T15:32:39.385Z,63.27
2018-11-26T15:35:11.586Z,58.60
2018-11-26T15:37:40.241Z,59.83
2018-11-26T15:40:09.846Z,63.03
2018-11-26T15:42:38.517Z,56.40
2018-11-26T15:45:15.106Z,58.37
2018-11-26T15:47:44.038Z,50.03
2018-11-26T15:50:12.981Z,64.03
2018-11-26T15:52:41.864Z,50.57
2018-11-26T15:55:11.923Z,51.23
2018-11-26T15:57:40.837Z,56.37
2018-11-26T16:00:12.170Z,53.80
2018-11-26T16:02:40.762Z,55.00
2018-11-26T16:05:10.979Z,58.50
2018-11-26T16:07:40.593Z,52.57
2018-11-26T16:10:10.755Z,46.20
2018-11-26T16:12:39.618Z,54.53
2018-11-26T16:15:25.329Z,43.57
2018-11-26T16:17:55.074Z,49.10
2018-11-26T16:20:25.066Z,52.23
2018-11-26T16:22:53.752Z,45.63
2018-11-26T16:25:23.269Z,49.97
2018-11-26T16:27:51.885Z,47.83
2018-11-26T16:30:20.487Z,46.47
2018-11-26T16:32:52.278Z,51.75
2018-11-26T16:35:23.205Z,47.80
2018-11-26T16:37:52.161Z,46.47
2018-11-26T16:40:20.770Z,45.07
2018-11-26T16:42:49.439Z,38.87
2018-11-26T16:45:19.853Z,46.83
2018-11-26T16:47:49.721Z,48.43
2018-11-26T16:50:19.649Z,41.07
2018-11-26T16:52:48.275Z,40.47
2018-11-26T16:55:17.623Z,40.50
2018-11-26T16:57:46.580Z,40.53
2018-11-26T17:00:18.209Z,42.43
2018-11-26T17:02:48.057Z,38.67
2018-11-26T17:05:22.521Z,44.53
2018-11-26T17:07:50.973Z,38.37
2018-11-26T17:10:19.742Z,40.77
2018-11-26T17:12:48.446Z,33.60
2018-11-26T17:15:17.839Z,38.00
2018-11-26T17:17:46.650Z,38.67
2018-11-26T17:20:16.293Z,39.17
2018-11-26T17:22:45.110Z,40.23
2018-11-26T17:25:14.817Z,40.37
2018-11-26T17:27:43.874Z,39.97
2018-11-26T17:30:21.761Z,36.80
2018-11-26T17:32:51.812Z,37.63
2018-11-26T17:35:20.414Z,32.10
2018-11-26T17:37:49.089Z,38.83
2018-11-26T17:40:20.598Z,32.47
2018-11-26T17:42:49.430Z,32.15
2018-11-26T17:45:18.585Z,33.27
2018-11-26T17:47:49.459Z,35.13
2018-11-26T17:50:20.051Z,30.63
2018-11-26T17:52:49.030Z,33.27
2018-11-26T17:55:17.881Z,34.23
2018-11-26T17:57:46.582Z,33.60
2018-11-26T18:00:18.252Z,25.93
2018-11-26T18:02:47.422Z,30.20
2018-11-26T18:05:21.314Z,31.07
2018-11-26T18:07:52.984Z,26.43
2018-11-26T18:10:21.693Z,28.67
2018-11-26T18:12:50.372Z,26.27
2018-11-26T18:15:18.994Z,28.70
2018-11-26T18:17:47.776Z,22.67
2018-11-26T18:20:18.567Z,24.27
2018-11-26T18:22:48.426Z,21.47
2018-11-26T18:25:17.289Z,23.43
2018-11-26T18:27:47.863Z,27.17
2018-11-26T18:30:18.267Z,29.10
2018-11-26T18:32:46.984Z,23.50
2018-11-26T18:35:16.122Z,24.10
2018-11-26T18:37:44.751Z,25.13
2018-11-26T18:40:16.157Z,29.23
2018-11-26T18:42:44.805Z,28.03
2018-11-26T18:45:15.490Z,24.40
2018-11-26T18:47:44.648Z,24.83
2018-11-26T18:50:16.577Z,25.83
2018-11-26T18:52:45.681Z,25.83
2018-11-26T18:55:14.298Z,27.30
2018-11-26T18:57:43.098Z,26.03
2018-11-26T19:00:16.225Z,28.60
2018-11-26T19:02:44.886Z,23.17
2018-11-26T19:05:14.493Z,22.97
2018-11-26T19:07:43.085Z,29.60
2018-11-26T19:10:14.231Z,29.80
2018-11-26T19:12:43.626Z,27.40
2018-11-26T19:15:19.162Z,29.03
2018-11-26T19:17:48.425Z,27.58
2018-11-26T19:20:17.110Z,28.23
2018-11-26T19:22:45.749Z,33.03
2018-11-26T19:25:15.838Z,33.67
2018-11-26T19:27:44.726Z,31.95
2018-11-26T19:30:14.665Z,31.93
2018-11-26T19:32:44.298Z,27.23
2018-11-26T19:35:14.157Z,33.30
2018-11-26T19:37:42.922Z,32.93
2018-11-26T19:40:15.867Z,29.70
2018-11-26T19:42:45.554Z,32.43
2018-11-26T19:45:17.567Z,33.57
2018-11-26T19:47:46.546Z,32.63
2018-11-26T19:50:16.231Z,29.20
2018-11-26T19:52:45.894Z,32.97
2018-11-26T19:55:16.810Z,30.73
2018-11-26T19:57:45.567Z,28.63
2018-11-26T20:00:15.425Z,29.10
2018-11-26T20:02:45.625Z,35.17
2018-11-26T20:05:17.573Z,30.80
2018-11-26T20:07:46.523Z,29.40
2018-11-26T20:10:15.442Z,33.53
2018-11-26T20:12:44.484Z,30.97
2018-11-26T20:15:14.557Z,29.87
2018-11-26T20:17:43.515Z,29.23
2018-11-26T20:20:12.134Z,32.53
2018-11-26T20:22:40.834Z,31.37
2018-11-26T20:25:13.002Z,26.87
2018-11-26T20:27:41.878Z,31.47
2018-11-26T20:33:13.350Z,34.73
2018-11-26T20:35:42.410Z,27.60
2018-11-26T20:38:12.752Z,29.87
2018-11-26T20:40:41.778Z,29.07
2018-11-26T20:43:11.260Z,27.47
2018-11-26T20:45:41.431Z,29.03
2018-11-26T20:48:10.629Z,24.40
2018-11-26T20:50:41.662Z,27.60
2018-11-26T20:53:10.606Z,28.40
2018-11-26T20:55:39.273Z,27.07
2018-11-26T20:58:08.127Z,27.63
2018-11-26T21:00:36.758Z,26.87
2018-11-26T21:03:09.031Z,24.57
2018-11-26T21:05:38.046Z,24.47
2018-11-26T21:08:06.704Z,30.57
2018-11-26T21:10:35.510Z,25.30
2018-11-26T21:13:04.214Z,26.10
2018-11-26T21:15:35.553Z,27.67
2018-11-26T21:18:07.482Z,29.10
2018-11-26T21:20:40.567Z,29.77
2018-11-26T21:23:11.749Z,27.63
2018-11-26T21:25:41.357Z,36.08
2018-11-26T21:28:10.051Z,26.80
2018-11-26T21:30:38.933Z,25.93
2018-11-26T21:33:07.985Z,31.03
2018-11-26T21:35:36.884Z,27.43
2018-11-26T21:38:06.657Z,25.93
2018-11-26T21:40:35.278Z,29.07
2018-11-26T21:43:04.443Z,29.50
2018-11-26T21:45:37.934Z,31.80
2018-11-26T21:48:06.561Z,27.93
2018-11-26T21:50:35.459Z,28.43
2018-11-26T21:53:04.943Z,27.20
2018-11-26T21:55:34.474Z,26.90
2018-11-26T21:58:03.137Z,28.30
2018-11-26T22:00:32.113Z,23.97
2018-11-26T22:03:06.776Z,28.67
2018-11-26T22:05:35.541Z,26.40
2018-11-26T22:08:04.723Z,31.65
2018-11-26T22:10:33.529Z,25.80
2018-11-26T22:13:02.222Z,26.77
2018-11-26T22:15:30.826Z,27.73
2018-11-26T22:17:59.433Z,28.40
2018-11-26T22:20:29.496Z,25.20
2018-11-26T22:22:58.107Z,25.03
2018-11-26T22:25:27.217Z,28.73
2018-11-26T22:27:55.857Z,29.90
2018-11-26T22:30:30.865Z,33.30
2018-11-26T22:32:59.470Z,25.93
2018-11-26T22:35:28.098Z,25.07
2018-11-26T22:37:56.737Z,25.73
2018-11-26T22:40:26.149Z,25.80
2018-11-26T22:42:54.828Z,30.67
2018-11-26T22:45:24.886Z,29.43
2018-11-26T22:47:55.585Z,28.40
2018-11-26T22:50:24.514Z,26.43
2018-11-26T22:52:53.375Z,28.92
2018-11-26T22:55:22.590Z,27.43
2018-11-26T22:57:50.864Z,30.67
2018-11-26T23:00:27.376Z,25.53
2018-11-26T23:02:59.109Z,27.60
2018-11-26T23:05:28.051Z,29.40
2018-11-26T23:07:56.944Z,27.60
2018-11-26T23:10:25.616Z,26.53
2018-11-26T23:12:54.676Z,23.37
2018-11-26T23:15:23.297Z,26.40
2018-11-26T23:17:52.001Z,24.83
2018-11-26T23:20:21.046Z,22.63
2018-11-26T23:22:50.374Z,25.82
2018-11-26T23:25:19.542Z,24.47
2018-11-26T23:27:48.254Z,23.10
2018-11-26T23:30:17.951Z,24.13
2018-11-26T23:32:47.783Z,23.63
2018-11-26T23:35:16.509Z,26.20
2018-11-26T23:37:45.470Z,23.95
2018-11-26T23:40:14.170Z,20.77
2018-11-26T23:42:42.794Z,20.33
2018-11-26T23:45:13.294Z,22.37
2018-11-26T23:47:41.933Z,23.37
2018-11-26T23:50:11.642Z,22.30
2018-11-26T23:52:40.831Z,24.40
2018-11-26T23:55:13.835Z,20.57
2018-11-26T23:57:42.592Z,20.50
